Time;durP1;ratioP1;P1;durP2;ratioP2;P2;SDS_P1;SDS_P2;PMS_P1;PMS_P2;Temp;Humidity;BMP_temperature;BMP_pressure;BME280_temperature;BME280_humidity;BME280_pressure;Samples;Min_cycle;Max_cycle;Signal;HPM_P1;HPM_P2
2023/04/08 00:01:56;;;;;;;7.10;4.00;;;4.50;99.90;;;;;;5078310;28;20059;-83
2023/04/08 00:04:21;;;;;;;6.68;4.13;;;4.60;99.90;;;;;;5079210;28;20024;-83
2023/04/08 00:06:47;;;;;;;5.20;3.53;;;4.60;99.90;;;;;;5078653;28;20531;-83
2023/04/08 00:09:12;;;;;;;7.28;4.07;;;4.60;99.90;;;;;;5095227;28;20515;-82
2023/04/08 00:11:38;;;;;;;5.93;4.03;;;4.60;99.90;;;;;;5078515;28;20052;-83
2023/04/08 00:14:04;;;;;;;7.18;4.40;;;4.60;99.90;;;;;;5079212;28;20099;-83
2023/04/08 00:16:30;;;;;;;7.43;3.80;;;4.50;99.90;;;;;;5061111;28;20402;-83
2023/04/08 00:18:56;;;;;;;7.03;4.10;;;4.50;99.90;;;;;;5061625;28;20036;-83
2023/04/08 00:21:22;;;;;;;6.25;3.95;;;4.60;99.90;;;;;;5045220;28;20058;-83
2023/04/08 00:23:48;;;;;;;7.95;4.32;;;4.50;99.90;;;;;;5061542;28;20545;-83
2023/04/08 00:26:14;;;;;;;9.20;5.63;;;4.50;99.90;;;;;;5061627;28;20123;-83
2023/04/08 00:28:41;;;;;;;11.93;6.85;;;4.50;99.90;;;;;;5061792;28;20402;-83
2023/04/08 00:31:07;;;;;;;12.68;7.03;;;4.50;99.90;;;;;;5096193;28;20016;-83
2023/04/08 00:33:32;;;;;;;14.10;7.78;;;4.40;99.90;;;;;;5061309;28;20413;-83
2023/04/08 00:35:58;;;;;;;10.63;6.43;;;4.40;99.90;;;;;;5061591;28;20029;-82
2023/04/08 00:38:24;;;;;;;11.15;6.28;;;4.40;99.90;;;;;;5094981;28;20032;-82
2023/04/08 00:40:50;;;;;;;10.63;5.70;;;4.40;99.90;;;;;;5044635;28;20036;-83
2023/04/08 00:43:19;;;;;;;8.00;4.65;;;4.40;99.90;;;;;;5078207;28;20020;-82
2023/04/08 00:45:45;;;;;;;8.50;4.93;;;4.40;99.90;;;;;;5077810;28;20026;-83
2023/04/08 00:48:11;;;;;;;7.80;4.20;;;4.50;99.90;;;;;;5061502;28;20107;-82
2023/04/08 00:50:36;;;;;;;10.02;4.60;;;4.40;99.90;;;;;;5044804;28;20032;-83
2023/04/08 00:53:02;;;;;;;8.90;4.93;;;4.40;99.90;;;;;;5061287;28;20028;-82
2023/04/08 00:55:28;;;;;;;9.88;4.75;;;4.40;99.90;;;;;;5078617;28;20032;-83
2023/04/08 00:57:54;;;;;;;11.85;6.28;;;4.40;99.90;;;;;;5044437;28;20028;-83
2023/04/08 01:00:20;;;;;;;12.75;6.75;;;4.40;99.90;;;;;;5078350;28;20028;-83
2023/04/08 01:03:07;;;;;;;10.77;5.70;;;4.40;99.90;;;;;;5061315;28;20024;-83
2023/04/08 01:05:53;;;;;;;10.70;5.60;;;4.40;99.90;;;;;;5099518;28;20069;-83
2023/04/08 01:08:19;;;;;;;8.30;4.85;;;4.30;99.90;;;;;;5094690;28;20453;-83
2023/04/08 01:10:52;;;;;;;8.65;4.95;;;4.30;99.90;;;;;;5061239;28;20028;-82
2023/04/08 01:13:23;;;;;;;8.98;4.45;;;4.40;99.90;;;;;;5096016;28;20363;-83
2023/04/08 01:15:49;;;;;;;8.40;4.90;;;4.40;99.90;;;;;;5077853;28;20400;-83
2023/04/08 01:18:16;;;;;;;8.13;4.57;;;4.40;99.90;;;;;;5077899;28;20386;-83
2023/04/08 01:20:43;;;;;;;7.47;4.20;;;4.40;99.90;;;;;;5077606;28;20118;-83
2023/04/08 01:23:11;;;;;;;6.93;4.32;;;4.40;99.90;;;;;;5077592;28;20028;-83
2023/04/08 01:25:38;;;;;;;8.05;3.60;;;4.40;99.90;;;;;;5094423;28;20077;-83
2023/04/08 01:28:10;;;;;;;7.38;3.70;;;4.40;99.90;;;;;;5060241;28;20047;-83
2023/04/08 01:30:39;;;;;;;5.43;3.67;;;4.40;99.90;;;;;;5077577;28;20089;-83
2023/04/08 01:33:05;;;;;;;6.03;3.83;;;4.40;99.90;;;;;;5095758;28;20417;-82
2023/04/08 01:35:31;;;;;;;5.85;3.28;;;4.40;99.90;;;;;;5077428;28;20028;-83
2023/04/08 01:37:58;;;;;;;7.95;4.10;;;4.50;99.90;;;;;;5095571;28;20052;-83
2023/04/08 01:40:24;;;;;;;7.03;4.43;;;4.40;99.90;;;;;;5077583;28;20078;-82
2023/04/08 01:42:54;;;;;;;8.40;4.32;;;4.40;99.90;;;;;;5079424;28;20420;-83
2023/04/08 01:45:21;;;;;;;6.70;4.32;;;4.40;99.90;;;;;;5096980;28;20028;-83
2023/04/08 01:47:48;;;;;;;7.57;4.30;;;4.30;99.90;;;;;;5078134;28;20032;-82
2023/04/08 01:50:15;;;;;;;8.45;4.95;;;4.30;99.90;;;;;;5079491;28;20032;-83
2023/04/08 01:52:43;;;;;;;11.20;5.63;;;4.30;99.90;;;;;;5062413;28;20107;-83
2023/04/08 01:55:09;;;;;;;11.15;6.50;;;4.40;99.90;;;;;;5062299;28;20144;-83
2023/04/08 01:57:37;;;;;;;10.65;6.35;;;4.30;99.90;;;;;;5062660;28;20107;-82
2023/04/08 02:00:07;;;;;;;12.45;6.53;;;4.30;99.90;;;;;;5097753;28;20016;-83
2023/04/08 02:02:35;;;;;;;12.85;6.60;;;4.30;99.90;;;;;;5079106;28;20024;-83
2023/04/08 02:05:01;;;;;;;11.00;6.18;;;4.30;99.90;;;;;;5079616;28;20110;-83
2023/04/08 02:07:27;;;;;;;17.23;9.00;;;4.30;99.90;;;;;;5063600;28;20032;-82
2023/04/08 02:09:53;;;;;;;13.73;7.97;;;4.30;99.90;;;;;;5099507;28;20022;-83
2023/04/08 02:12:19;;;;;;;12.25;7.72;;;4.30;99.90;;;;;;5064546;28;20024;-83
2023/04/08 02:14:46;;;;;;;11.30;7.28;;;4.30;99.90;;;;;;5047538;28;20379;-83
2023/04/08 02:17:18;;;;;;;11.30;6.85;;;4.30;99.90;;;;;;5081054;28;20051;-83
2023/04/08 02:20:09;;;;;;;15.45;7.60;;;4.30;99.90;;;;;;5080096;28;20038;-83
2023/04/08 02:22:49;;;;;;;13.18;8.38;;;4.30;99.90;;;;;;5084766;28;20035;-81
2023/04/08 02:25:20;;;;;;;9.68;6.68;;;4.30;99.90;;;;;;5089581;28;20020;-81
2023/04/08 02:27:48;;;;;;;10.15;5.97;;;4.20;99.90;;;;;;5088962;28;20055;-82
2023/04/08 02:30:15;;;;;;;7.22;5.25;;;4.20;99.90;;;;;;5056112;28;20513;-81
2023/04/08 02:32:42;;;;;;;9.45;5.63;;;4.10;99.90;;;;;;5072633;28;20032;-82
2023/04/08 02:35:10;;;;;;;8.15;5.32;;;4.10;99.90;;;;;;5088617;28;20023;-82
2023/04/08 02:37:36;;;;;;;8.32;5.13;;;4.00;99.90;;;;;;5089221;28;20058;-82
2023/04/08 02:40:02;;;;;;;7.25;4.70;;;4.00;99.90;;;;;;5105133;28;20024;-81
2023/04/08 02:42:28;;;;;;;8.35;4.88;;;4.00;99.90;;;;;;5089649;28;20034;-82
2023/04/08 02:44:53;;;;;;;9.20;5.07;;;4.10;99.90;;;;;;5105833;28;20058;-81
2023/04/08 02:47:19;;;;;;;9.07;5.05;;;4.00;99.90;;;;;;5088485;28;20538;-81
2023/04/08 02:49:45;;;;;;;8.18;4.90;;;4.10;99.90;;;;;;5072228;28;20032;-81
2023/04/08 02:52:10;;;;;;;9.35;5.00;;;4.00;99.90;;;;;;5105773;28;20033;-81
2023/04/08 02:54:36;;;;;;;8.48;5.10;;;4.10;99.90;;;;;;5105271;28;20099;-81
2023/04/08 02:57:02;;;;;;;8.18;4.78;;;4.10;99.90;;;;;;5107608;28;20088;-81
2023/04/08 02:59:27;;;;;;;7.28;4.57;;;4.10;99.90;;;;;;5090000;28;20489;-81
2023/04/08 03:01:53;;;;;;;7.93;4.78;;;4.10;99.90;;;;;;5090534;28;20059;-81
2023/04/08 03:04:19;;;;;;;6.68;4.70;;;4.10;99.90;;;;;;5107843;28;20035;-81
2023/04/08 03:06:44;;;;;;;7.38;5.03;;;4.10;99.90;;;;;;5108940;28;20077;-81
2023/04/08 03:09:10;;;;;;;8.68;4.28;;;4.10;99.90;;;;;;5073380;28;20448;-81
2023/04/08 03:11:36;;;;;;;6.70;4.35;;;4.20;99.90;;;;;;5073286;28;20036;-81
2023/04/08 03:14:01;;;;;;;10.38;5.93;;;4.20;99.90;;;;;;5074247;28;20035;-81
2023/04/08 03:16:27;;;;;;;8.30;5.70;;;4.20;99.90;;;;;;5109426;28;20029;-81
2023/04/08 03:18:53;;;;;;;8.77;5.07;;;4.20;99.90;;;;;;5109264;28;20110;-81
2023/04/08 03:21:18;;;;;;;8.05;4.95;;;4.10;99.90;;;;;;5109066;28;20050;-81
2023/04/08 03:23:44;;;;;;;7.53;5.13;;;4.10;99.90;;;;;;5109710;28;20032;-81
2023/04/08 03:26:10;;;;;;;7.60;4.10;;;4.10;99.90;;;;;;5074815;28;20028;-82
2023/04/08 03:28:36;;;;;;;8.10;4.50;;;4.10;99.90;;;;;;5109557;28;20024;-81
2023/04/08 03:31:03;;;;;;;7.88;4.57;;;4.10;99.90;;;;;;5109528;28;20028;-82
2023/04/08 03:33:29;;;;;;;7.43;4.90;;;4.10;99.90;;;;;;5090623;28;20397;-81
2023/04/08 03:35:55;;;;;;;7.43;4.60;;;4.20;99.90;;;;;;5092282;28;20032;-81
2023/04/08 03:38:21;;;;;;;8.88;4.72;;;4.20;99.90;;;;;;5091856;28;20034;-81
2023/04/08 03:40:46;;;;;;;6.65;4.50;;;4.10;99.90;;;;;;5109967;28;20028;-81
2023/04/08 03:43:13;;;;;;;7.43;4.72;;;4.00;99.90;;;;;;5076553;28;20025;-81
2023/04/08 03:45:38;;;;;;;6.70;4.40;;;4.00;99.90;;;;;;5094440;28;20028;-81
2023/04/08 03:48:04;;;;;;;7.40;4.75;;;4.00;99.90;;;;;;5094001;28;20034;-81
2023/04/08 03:50:30;;;;;;;8.73;4.90;;;3.90;99.90;;;;;;5094498;28;20117;-81
2023/04/08 03:52:56;;;;;;;11.35;5.88;;;4.00;99.90;;;;;;5115184;28;20032;-81
2023/04/08 03:55:22;;;;;;;9.10;5.05;;;3.90;99.90;;;;;;5115424;28;20080;-83
2023/04/08 03:57:48;;;;;;;10.02;5.70;;;3.90;99.90;;;;;;5113900;28;20036;-83
2023/04/08 04:00:14;;;;;;;10.32;5.88;;;4.00;99.90;;;;;;5076578;28;20028;-83
2023/04/08 04:02:40;;;;;;;8.00;5.32;;;4.00;99.90;;;;;;5111038;28;20028;-83
2023/04/08 04:05:07;;;;;;;8.75;5.10;;;3.90;99.90;;;;;;5112738;28;20016;-83
2023/04/08 04:07:32;;;;;;;8.27;5.05;;;4.00;99.90;;;;;;5115447;28;20020;-83
2023/04/08 04:09:58;;;;;;;10.30;5.93;;;4.00;99.90;;;;;;5096670;28;20050;-84
2023/04/08 04:12:24;;;;;;;10.18;5.50;;;4.00;99.90;;;;;;5115177;28;20043;-83
2023/04/08 04:14:50;;;;;;;10.30;5.30;;;4.00;99.90;;;;;;5086500;28;20036;-82
2023/04/08 04:17:16;;;;;;;8.35;5.22;;;3.90;99.90;;;;;;5105104;28;20111;-83
2023/04/08 04:19:41;;;;;;;10.65;5.63;;;3.90;99.90;;;;;;5096580;28;20035;-82
2023/04/08 04:22:07;;;;;;;8.25;5.60;;;4.00;99.90;;;;;;5080879;28;20032;-83
2023/04/08 04:24:33;;;;;;;9.10;5.75;;;4.00;99.90;;;;;;5081912;28;20482;-84
2023/04/08 04:26:58;;;;;;;8.40;5.72;;;4.00;99.90;;;;;;5094970;28;20058;-84
2023/04/08 04:29:24;;;;;;;8.85;6.03;;;4.00;99.90;;;;;;5072275;28;20024;-84
2023/04/08 04:31:50;;;;;;;7.43;4.93;;;4.00;99.90;;;;;;5098382;28;20047;-84
2023/04/08 04:34:16;;;;;;;8.40;5.03;;;4.00;99.90;;;;;;5064677;28;20035;-84
2023/04/08 04:36:48;;;;;;;7.68;4.95;;;4.00;99.90;;;;;;5098604;28;20073;-85
2023/04/08 04:39:13;;;;;;;6.53;4.53;;;3.90;99.90;;;;;;5062485;28;20053;-84
2023/04/08 04:41:39;;;;;;;11.02;6.28;;;4.00;99.90;;;;;;5095937;28;20281;-78
2023/04/08 04:44:05;;;;;;;10.70;6.43;;;4.00;99.90;;;;;;5115487;28;20389;-78
2023/04/08 04:46:31;;;;;;;8.57;6.10;;;4.00;99.90;;;;;;5080614;28;20124;-78
2023/04/08 04:48:57;;;;;;;8.88;5.85;;;3.90;99.90;;;;;;5115930;28;20020;-79
2023/04/08 04:51:25;;;;;;;11.10;6.05;;;3.90;99.90;;;;;;5096526;28;20055;-79
2023/04/08 04:53:51;;;;;;;11.52;8.55;;;3.90;99.90;;;;;;5115748;28;20055;-79
2023/04/08 04:56:17;;;;;;;11.15;7.30;;;3.80;99.90;;;;;;5097310;28;20118;-78
2023/04/08 04:58:43;;;;;;;10.85;7.45;;;3.90;99.90;;;;;;5116991;28;20067;-78
2023/04/08 05:01:09;;;;;;;13.65;8.45;;;3.90;99.90;;;;;;5097615;28;20028;-78
2023/04/08 05:03:34;;;;;;;21.13;11.75;;;3.90;99.90;;;;;;5116511;28;20046;-79
2023/04/08 05:06:00;;;;;;;22.48;11.35;;;3.80;99.90;;;;;;5098210;28;20027;-78
2023/04/08 05:08:26;;;;;;;20.45;10.70;;;3.80;99.90;;;;;;5098435;28;20427;-78
2023/04/08 05:10:54;;;;;;;22.92;11.85;;;3.80;99.90;;;;;;5081313;28;20031;-78
2023/04/08 05:13:20;;;;;;;24.98;13.40;;;3.80;99.90;;;;;;5116173;28;20038;-78
2023/04/08 05:15:46;;;;;;;22.85;12.88;;;3.80;99.90;;;;;;5098433;28;20024;-78
2023/04/08 05:18:11;;;;;;;24.88;14.18;;;3.90;99.90;;;;;;5098159;28;20397;-78
2023/04/08 05:20:37;;;;;;;27.48;15.05;;;3.90;99.90;;;;;;5116201;28;20028;-78
2023/04/08 05:23:03;;;;;;;24.75;14.13;;;3.90;99.90;;;;;;5116307;28;20020;-78
2023/04/08 05:25:29;;;;;;;22.25;13.65;;;3.90;99.90;;;;;;5098160;28;20031;-78
2023/04/08 05:27:55;;;;;;;30.73;16.13;;;3.90;99.90;;;;;;5116228;28;20535;-78
2023/04/08 05:30:21;;;;;;;29.88;15.27;;;3.90;99.90;;;;;;5097744;28;20031;-78
2023/04/08 05:32:47;;;;;;;23.17;13.13;;;3.90;99.90;;;;;;5081044;28;20061;-78
2023/04/08 05:35:12;;;;;;;30.50;12.93;;;3.90;99.90;;;;;;5098057;28;20027;-78
2023/04/08 05:37:38;;;;;;;22.42;11.15;;;3.90;99.90;;;;;;5098255;28;20020;-78
2023/04/08 05:40:04;;;;;;;24.02;11.25;;;4.00;99.90;;;;;;5116176;28;20019;-78
2023/04/08 05:42:31;;;;;;;18.25;9.30;;;4.00;99.90;;;;;;5098114;28;20170;-78
2023/04/08 05:44:57;;;;;;;10.50;6.20;;;4.00;99.90;;;;;;5098252;28;20030;-79
2023/04/08 05:47:23;;;;;;;9.07;5.57;;;4.00;99.90;;;;;;5116043;28;20099;-78
2023/04/08 05:49:48;;;;;;;9.05;5.53;;;4.10;99.90;;;;;;5115810;28;20035;-78
2023/04/08 05:52:15;;;;;;;8.80;5.13;;;4.10;99.90;;;;;;5097566;28;20032;-78
2023/04/08 05:54:44;;;;;;;9.55;5.72;;;4.10;99.90;;;;;;5116018;28;20031;-78
2023/04/08 05:57:11;;;;;;;9.77;5.93;;;4.10;99.90;;;;;;5097503;28;20043;-78
2023/04/08 05:59:36;;;;;;;8.02;5.65;;;4.10;99.90;;;;;;5116049;28;20092;-78
2023/04/08 06:02:02;;;;;;;10.18;6.35;;;4.20;99.90;;;;;;5097792;28;20428;-78
2023/04/08 06:04:29;;;;;;;12.65;6.57;;;4.20;99.90;;;;;;5115928;28;20139;-78
2023/04/08 06:06:58;;;;;;;9.57;6.20;;;4.30;99.90;;;;;;5115824;28;20477;-78
2023/04/08 06:09:24;;;;;;;12.18;7.45;;;4.40;99.90;;;;;;5115217;28;20534;-78
2023/04/08 06:11:51;;;;;;;13.32;7.53;;;4.40;99.90;;;;;;5116293;28;20062;-78
2023/04/08 06:14:16;;;;;;;11.35;6.47;;;4.40;99.90;;;;;;5115326;28;20094;-78
2023/04/08 06:16:42;;;;;;;11.70;7.20;;;4.50;99.90;;;;;;5097518;28;20464;-78
2023/04/08 06:19:08;;;;;;;10.88;6.63;;;4.50;99.90;;;;;;5097499;28;20076;-78
2023/04/08 06:21:34;;;;;;;10.93;6.55;;;4.50;99.90;;;;;;5097567;28;20055;-78
2023/04/08 06:23:59;;;;;;;10.93;6.55;;;4.50;99.90;;;;;;5097294;28;20036;-78
2023/04/08 06:26:26;;;;;;;10.32;6.15;;;4.60;99.90;;;;;;5080783;28;20030;-78
2023/04/08 06:28:52;;;;;;;13.85;7.78;;;4.60;99.90;;;;;;5097377;28;20020;-78
2023/04/08 06:31:18;;;;;;;12.60;7.60;;;4.60;99.90;;;;;;5097659;28;20393;-78
2023/04/08 06:33:43;;;;;;;13.30;8.02;;;4.60;99.90;;;;;;5114481;28;20035;-78
2023/04/08 06:36:10;;;;;;;13.80;8.25;;;4.70;99.90;;;;;;5114474;28;20039;-78
2023/04/08 06:38:35;;;;;;;13.57;7.35;;;4.70;99.90;;;;;;5096040;28;20539;-76
2023/04/08 06:41:02;;;;;;;12.52;7.40;;;4.80;99.90;;;;;;5114208;28;20028;-76
2023/04/08 06:43:29;;;;;;;11.98;7.53;;;4.80;99.90;;;;;;5113907;28;20056;-76
2023/04/08 06:45:55;;;;;;;10.20;6.82;;;4.80;99.90;;;;;;5095987;28;20016;-76
2023/04/08 06:48:22;;;;;;;12.02;7.15;;;4.90;99.90;;;;;;5113720;28;20019;-76
2023/04/08 06:50:48;;;;;;;11.77;7.38;;;4.90;99.90;;;;;;5096172;28;20469;-76
2023/04/08 06:53:17;;;;;;;14.00;7.53;;;5.00;99.90;;;;;;5095720;28;20481;-76
2023/04/08 06:55:42;;;;;;;11.65;8.00;;;5.10;99.90;;;;;;5095495;28;20550;-76
2023/04/08 06:58:08;;;;;;;14.07;9.52;;;5.20;99.90;;;;;;5096558;28;20027;-76
2023/04/08 07:00:34;;;;;;;15.05;8.50;;;5.30;99.90;;;;;;5113965;28;20027;-77
2023/04/08 07:03:00;;;;;;;14.15;8.77;;;5.30;99.90;;;;;;5095657;28;20485;-76
2023/04/08 07:05:25;;;;;;;15.60;9.20;;;5.40;99.90;;;;;;5095941;28;20024;-77
2023/04/08 07:07:51;;;;;;;15.10;8.65;;;5.50;99.90;;;;;;5095484;28;20119;-77
2023/04/08 07:10:17;;;;;;;11.65;7.82;;;5.60;99.90;;;;;;5095284;28;20063;-76
2023/04/08 07:12:42;;;;;;;12.75;7.45;;;5.70;99.90;;;;;;5061830;28;20023;-77
2023/04/08 07:15:09;;;;;;;11.13;7.05;;;5.70;99.90;;;;;;5095299;28;20034;-77
2023/04/08 07:17:35;;;;;;;14.57;8.63;;;5.80;99.90;;;;;;5113544;28;20062;-77
2023/04/08 07:20:01;;;;;;;21.33;10.63;;;5.90;99.90;;;;;;5095776;28;20035;-76
2023/04/08 07:22:26;;;;;;;13.20;8.55;;;5.90;99.90;;;;;;5113419;28;20392;-76
2023/04/08 07:24:52;;;;;;;14.20;8.75;;;6.00;99.90;;;;;;5113441;28;20024;-76
2023/04/08 07:27:18;;;;;;;13.38;7.47;;;6.00;99.90;;;;;;5099157;28;20068;-76
2023/04/08 07:29:44;;;;;;;10.30;6.82;;;6.00;99.90;;;;;;5117569;28;20107;-76
2023/04/08 07:32:10;;;;;;;11.07;6.78;;;6.00;99.90;;;;;;5099330;28;20044;-77
2023/04/08 07:34:35;;;;;;;10.45;6.82;;;6.10;99.90;;;;;;5117185;28;20031;-76
2023/04/08 07:37:02;;;;;;;9.60;6.55;;;6.10;99.90;;;;;;5083813;28;20142;-77
2023/04/08 07:39:27;;;;;;;11.48;7.05;;;6.20;99.90;;;;;;5117365;28;20504;-77
2023/04/08 07:41:53;;;;;;;13.60;8.32;;;6.20;99.90;;;;;;5098928;28;20028;-77
2023/04/08 07:44:19;;;;;;;13.38;8.95;;;6.30;99.90;;;;;;5117388;28;20023;-77
2023/04/08 07:46:48;;;;;;;14.23;8.68;;;6.40;99.90;;;;;;5117660;28;20031;-77
2023/04/08 07:49:13;;;;;;;12.73;8.00;;;6.40;99.90;;;;;;5098885;28;20023;-77
2023/04/08 07:51:39;;;;;;;13.70;8.30;;;6.40;99.90;;;;;;5098974;28;20122;-77
2023/04/08 07:54:05;;;;;;;11.88;8.23;;;6.40;99.90;;;;;;5098740;28;20027;-77
2023/04/08 07:56:30;;;;;;;13.82;9.10;;;6.50;99.90;;;;;;5117560;28;20031;-77
2023/04/08 07:58:56;;;;;;;15.85;9.68;;;6.50;99.90;;;;;;5117193;28;20517;-77
2023/04/08 08:01:22;;;;;;;16.55;10.45;;;6.50;99.90;;;;;;5098834;28;20136;-77
2023/04/08 08:03:49;;;;;;;13.93;8.95;;;6.40;99.90;;;;;;5082842;28;20034;-77
2023/04/08 08:06:15;;;;;;;21.15;11.88;;;6.50;99.90;;;;;;5117053;28;20043;-77
2023/04/08 08:08:41;;;;;;;14.23;8.95;;;6.50;99.90;;;;;;5120492;28;20386;-77
2023/04/08 08:11:07;;;;;;;14.02;8.98;;;6.50;99.90;;;;;;5122059;28;20068;-77
2023/04/08 08:13:33;;;;;;;12.57;6.93;;;6.60;99.90;;;;;;5103488;28;20030;-77
2023/04/08 08:15:58;;;;;;;10.05;6.55;;;6.60;99.90;;;;;;5120762;28;20019;-77
2023/04/08 08:18:24;;;;;;;12.55;8.43;;;6.70;99.90;;;;;;5102772;28;20069;-77
2023/04/08 08:20:50;;;;;;;13.23;8.02;;;6.80;99.90;;;;;;5101590;28;20028;-77
2023/04/08 08:23:16;;;;;;;14.07;9.30;;;6.80;99.90;;;;;;5118474;28;20024;-77
2023/04/08 08:25:42;;;;;;;14.48;8.75;;;6.80;99.90;;;;;;5118028;28;20031;-78
2023/04/08 08:28:07;;;;;;;17.40;9.23;;;6.70;99.90;;;;;;5100703;28;20073;-79
2023/04/08 08:30:33;;;;;;;15.38;9.02;;;6.70;99.90;;;;;;5083398;28;20415;-78
2023/04/08 08:32:59;;;;;;;13.60;7.82;;;6.80;99.90;;;;;;5082980;28;20028;-78
2023/04/08 08:35:25;;;;;;;13.57;8.32;;;6.80;99.90;;;;;;5083033;28;20035;-78
2023/04/08 08:37:51;;;;;;;13.30;8.45;;;6.80;99.90;;;;;;5065435;28;20362;-79
2023/04/08 08:40:16;;;;;;;12.52;8.23;;;6.80;99.90;;;;;;5117845;28;20023;-78
2023/04/08 08:42:51;;;;;;;13.80;8.38;;;6.70;99.90;;;;;;5117021;28;20478;-78
2023/04/08 08:45:19;;;;;;;12.40;8.55;;;6.70;99.90;;;;;;5117026;28;20020;-77
2023/04/08 08:47:45;;;;;;;13.52;9.93;;;6.70;99.90;;;;;;5117240;28;20097;-77
2023/04/08 08:50:10;;;;;;;15.15;9.35;;;6.60;99.90;;;;;;5116859;28;20039;-78
2023/04/08 08:52:36;;;;;;;18.05;10.95;;;6.60;99.90;;;;;;5098837;28;20024;-77
2023/04/08 08:55:02;;;;;;;16.67;10.77;;;6.60;99.90;;;;;;5117378;28;20355;-78
2023/04/08 08:57:27;;;;;;;12.38;7.97;;;6.60;99.90;;;;;;5098782;28;20034;-77
2023/04/08 08:59:53;;;;;;;13.77;8.13;;;6.60;99.90;;;;;;5117616;28;20028;-77
2023/04/08 09:02:25;;;;;;;12.85;8.15;;;6.60;99.90;;;;;;5098732;28;20432;-77
2023/04/08 09:05:02;;;;;;;12.82;8.23;;;6.70;99.90;;;;;;5099011;28;20031;-78
2023/04/08 09:07:30;;;;;;;12.57;8.27;;;6.70;99.90;;;;;;5117166;28;20034;-77
2023/04/08 09:09:57;;;;;;;15.18;8.85;;;6.60;99.90;;;;;;5116793;28;20068;-78
2023/04/08 09:12:26;;;;;;;13.57;9.50;;;6.60;99.90;;;;;;5116257;28;20537;-77
2023/04/08 09:15:03;;;;;;;16.58;8.52;;;6.50;99.90;;;;;;5116818;28;20443;-78
2023/04/08 09:17:37;;;;;;;18.42;11.02;;;6.60;99.90;;;;;;5116916;28;20031;-78
2023/04/08 09:20:11;;;;;;;15.65;10.82;;;6.50;99.90;;;;;;5080879;28;20058;-77
2023/04/08 09:22:56;;;;;;;12.40;7.45;;;6.50;99.90;;;;;;5098079;28;20027;-78
2023/04/08 09:25:33;;;;;;;11.00;6.60;;;6.50;99.90;;;;;;5098392;28;20031;-78
2023/04/08 09:28:01;;;;;;;11.57;6.57;;;6.50;99.90;;;;;;5116456;28;20027;-77
2023/04/08 09:30:27;;;;;;;15.35;9.55;;;6.50;99.90;;;;;;5116091;28;20031;-78
2023/04/08 09:32:55;;;;;;;13.23;7.43;;;6.60;99.90;;;;;;5115635;28;20405;-78
2023/04/08 09:35:22;;;;;;;9.00;5.55;;;6.60;99.90;;;;;;5097580;28;20039;-78
2023/04/08 09:37:48;;;;;;;10.18;6.40;;;6.60;99.90;;;;;;5097791;28;20488;-78
2023/04/08 09:40:15;;;;;;;10.43;6.97;;;6.60;99.90;;;;;;5115832;28;20042;-77
2023/04/08 09:42:49;;;;;;;8.82;6.40;;;6.50;99.90;;;;;;5080716;28;20126;-78
2023/04/08 09:45:16;;;;;;;10.77;6.47;;;6.50;99.90;;;;;;5115992;28;20020;-77
2023/04/08 09:47:51;;;;;;;10.23;6.68;;;6.40;99.90;;;;;;5115183;28;20358;-77
2023/04/08 09:50:19;;;;;;;10.23;6.70;;;6.40;99.90;;;;;;5115446;28;20098;-78
2023/04/08 09:52:50;;;;;;;9.48;5.88;;;6.40;99.90;;;;;;5116076;28;20035;-83
2023/04/08 09:55:21;;;;;;;7.47;4.78;;;6.40;99.90;;;;;;5081837;28;20044;-83
2023/04/08 09:58:32;;;;;;;6.70;3.83;;;6.40;99.90;;;;;;5097818;28;20032;-78
2023/04/08 10:00:58;;;;;;;10.98;5.78;;;6.40;99.90;;;;;;5094978;28;20165;-79
2023/04/08 10:03:24;;;;;;;8.32;5.13;;;6.40;99.90;;;;;;5098048;28;20047;-79
2023/04/08 10:05:52;;;;;;;10.65;6.30;;;6.50;99.90;;;;;;5097431;28;20077;-79
2023/04/08 10:08:19;;;;;;;10.93;6.25;;;6.50;99.90;;;;;;5116194;28;20102;-79
2023/04/08 10:10:45;;;;;;;9.90;6.53;;;6.40;99.90;;;;;;5097204;28;20024;-79
2023/04/08 10:13:11;;;;;;;11.15;7.10;;;6.40;99.90;;;;;;5116321;28;20430;-79
2023/04/08 10:15:39;;;;;;;11.52;7.00;;;6.40;99.90;;;;;;5116580;28;20019;-79
2023/04/08 10:18:08;;;;;;;8.32;4.80;;;6.40;99.90;;;;;;5116084;28;20020;-79
2023/04/08 10:20:33;;;;;;;8.30;5.47;;;6.30;99.90;;;;;;5097371;28;20027;-79
2023/04/08 10:23:03;;;;;;;11.82;6.85;;;6.30;99.90;;;;;;5097347;28;20019;-80
2023/04/08 10:25:37;;;;;;;10.02;6.28;;;6.20;99.90;;;;;;5097610;28;20028;-80
2023/04/08 10:28:17;;;;;;;14.82;8.18;;;6.10;99.90;;;;;;5115239;28;20424;-81
2023/04/08 10:30:50;;;;;;;18.50;8.53;;;6.00;99.90;;;;;;5115302;28;20023;-81
2023/04/08 10:33:28;;;;;;;15.32;7.88;;;6.00;99.90;;;;;;5115545;28;20280;-81
2023/04/08 10:35:58;;;;;;;13.82;7.60;;;6.00;99.90;;;;;;5115465;28;20080;-82
2023/04/08 10:38:24;;;;;;;15.40;9.15;;;6.00;99.90;;;;;;5097460;28;20032;-82
2023/04/08 10:40:50;;;;;;;12.15;7.20;;;6.10;99.90;;;;;;5097102;28;20477;-82
2023/04/08 10:43:16;;;;;;;11.15;7.18;;;6.20;99.90;;;;;;5063661;28;20024;-82
2023/04/08 10:45:42;;;;;;;9.48;6.63;;;6.20;99.90;;;;;;5097121;28;20043;-82
2023/04/08 10:48:23;;;;;;;9.68;5.38;;;6.20;99.90;;;;;;5080257;28;20027;-82
2023/04/08 10:51:02;;;;;;;5.03;3.08;;;6.20;99.90;;;;;;5096537;28;20050;-82
2023/04/08 10:53:29;;;;;;;5.43;2.83;;;6.10;99.90;;;;;;5096038;28;20129;-83
2023/04/08 10:56:08;;;;;;;4.57;2.97;;;6.10;99.90;;;;;;5095558;28;20027;-83
2023/04/08 10:58:35;;;;;;;4.78;2.65;;;6.10;99.90;;;;;;5095688;28;20030;-83
2023/04/08 11:01:07;;;;;;;3.70;2.40;;;6.10;99.90;;;;;;5098908;28;20023;-83
2023/04/08 11:03:34;;;;;;;5.88;2.90;;;6.10;99.90;;;;;;5099880;28;20039;-83
2023/04/08 11:06:01;;;;;;;3.28;2.05;;;6.10;99.90;;;;;;5100374;28;20032;-83
2023/04/08 11:08:35;;;;;;;4.28;2.13;;;6.10;99.90;;;;;;5100011;28;20031;-82
2023/04/08 11:11:02;;;;;;;3.35;2.03;;;6.10;99.90;;;;;;5100234;28;20080;-82
2023/04/08 11:13:29;;;;;;;3.05;1.83;;;6.10;99.90;;;;;;5083434;28;20552;-83
2023/04/08 11:15:57;;;;;;;4.18;2.58;;;6.10;99.90;;;;;;5099956;28;20473;-83
2023/04/08 11:18:23;;;;;;;4.47;2.45;;;6.00;99.90;;;;;;5118239;28;20427;-83
2023/04/08 11:20:53;;;;;;;4.28;2.25;;;6.00;99.90;;;;;;5083099;28;20024;-84
2023/04/08 11:23:19;;;;;;;6.05;3.00;;;6.00;99.90;;;;;;5117988;28;20485;-82
2023/04/08 11:25:45;;;;;;;4.47;2.08;;;6.10;99.90;;;;;;5099908;28;20015;-83
2023/04/08 11:28:13;;;;;;;3.70;2.20;;;6.10;99.90;;;;;;5083032;28;20024;-84
2023/04/08 11:30:39;;;;;;;3.78;2.00;;;6.00;99.90;;;;;;5083107;28;20080;-85
2023/04/08 11:33:06;;;;;;;3.13;1.92;;;5.90;99.90;;;;;;5099628;28;20073;-85
2023/04/08 11:35:32;;;;;;;3.67;2.05;;;5.90;99.90;;;;;;5099810;28;20030;-84
2023/04/08 11:37:58;;;;;;;4.43;2.55;;;6.00;99.90;;;;;;5083193;28;20024;-85
2023/04/08 11:40:25;;;;;;;5.38;3.00;;;5.90;99.90;;;;;;5082817;28;20382;-85
2023/04/08 11:42:51;;;;;;;8.35;5.13;;;5.90;99.90;;;;;;5082380;28;20070;-85
2023/04/08 11:45:21;;;;;;;20.33;11.85;;;5.90;99.90;;;;;;5099344;28;20022;-85
2023/04/08 11:47:47;;;;;;;9.93;6.25;;;6.00;99.90;;;;;;5099031;28;20030;-85
2023/04/08 11:50:24;;;;;;;6.30;3.97;;;6.00;99.90;;;;;;5099061;28;20024;-85
2023/04/08 11:52:51;;;;;;;3.95;2.92;;;6.00;99.90;;;;;;5082596;28;20123;-85
2023/04/08 11:55:29;;;;;;;4.88;3.50;;;6.00;99.90;;;;;;5065419;28;20080;-85
2023/04/08 11:58:00;;;;;;;4.03;2.65;;;6.00;99.90;;;;;;5098597;28;20081;-85
2023/04/08 12:00:27;;;;;;;4.35;2.45;;;6.10;99.90;;;;;;5099190;28;20080;-85
2023/04/08 12:02:52;;;;;;;5.10;2.55;;;6.10;99.90;;;;;;5098721;28;20492;-85
2023/04/08 12:05:19;;;;;;;5.07;2.90;;;6.10;99.90;;;;;;5098894;28;20056;-85
2023/04/08 12:07:45;;;;;;;4.60;2.65;;;6.00;99.90;;;;;;5099044;28;20477;-85
2023/04/08 12:10:11;;;;;;;5.82;3.55;;;6.00;99.90;;;;;;5081916;28;20035;-85
2023/04/08 12:12:37;;;;;;;5.57;3.70;;;6.00;99.90;;;;;;5097973;28;20027;-85
2023/04/08 12:15:04;;;;;;;4.82;2.90;;;6.10;99.90;;;;;;5098757;28;20024;-85
2023/04/08 12:17:30;;;;;;;4.63;2.83;;;6.10;99.90;;;;;;5081997;28;20631;-85
2023/04/08 12:19:56;;;;;;;4.25;2.90;;;6.10;99.90;;;;;;5085540;28;20104;-85
2023/04/08 12:22:22;;;;;;;4.50;2.88;;;6.20;99.90;;;;;;5117118;28;20032;-84
2023/04/08 12:24:48;;;;;;;5.30;3.00;;;6.20;99.90;;;;;;5099363;28;20028;-84
2023/04/08 12:27:13;;;;;;;3.22;2.13;;;6.20;99.90;;;;;;5099095;28;20077;-84
2023/04/08 12:29:39;;;;;;;3.08;1.90;;;6.10;99.90;;;;;;5098763;28;20433;-84
2023/04/08 12:32:05;;;;;;;3.30;2.10;;;6.00;99.90;;;;;;5082316;28;20108;-84
2023/04/08 12:34:31;;;;;;;2.92;1.67;;;6.00;99.90;;;;;;5081826;28;20046;-84
2023/04/08 12:36:57;;;;;;;2.22;1.45;;;5.90;99.90;;;;;;5098936;28;20028;-84
2023/04/08 12:39:23;;;;;;;4.07;2.38;;;5.90;99.90;;;;;;5082048;28;20069;-84
2023/04/08 12:41:49;;;;;;;3.80;2.38;;;5.80;99.90;;;;;;5081762;28;20122;-84
2023/04/08 12:44:15;;;;;;;4.80;2.20;;;5.70;99.90;;;;;;5065099;28;20028;-84
2023/04/08 12:46:41;;;;;;;2.95;1.83;;;5.70;99.90;;;;;;5098335;28;20063;-84
2023/04/08 12:49:07;;;;;;;3.28;1.80;;;5.70;99.90;;;;;;5064454;28;20047;-84
2023/04/08 12:51:33;;;;;;;3.15;2.00;;;5.60;99.90;;;;;;5098081;28;20028;-84